sensor_id;sensor_type;location;lat;lon;timestamp;temperature;humidity
12655;DHT22;6392;44.644;11.448;2022-12-05T00:00:48;9.00;99.90
12655;DHT22;6392;44.644;11.448;2022-12-05T00:03:15;9.00;99.90
12655;DHT22;6392;44.644;11.448;2022-12-05T00:05:44;9.00;99.90
12655;DHT22;6392;44.644;11.448;2022-12-05T00:08:11;9.00;99.90
12655;DHT22;6392;44.644;11.448;2022-12-05T00:10:38;9.00;99.90
12655;DHT22;6392;44.644;11.448;2022-12-05T00:13:06;9.00;99.90
12655;DHT22;6392;44.644;11.448;2022-12-05T00:15:35;9.00;99.90
12655;DHT22;6392;44.644;11.448;2022-12-05T00:18:03;9.00;99.90
12655;DHT22;6392;44.644;11.448;2022-12-05T00:20:30;9.00;99.90
12655;DHT22;6392;44.644;11.448;2022-12-05T00:22:59;9.00;99.90
12655;DHT22;6392;44.644;11.448;2022-12-05T00:25:26;9.00;99.90
12655;DHT22;6392;44.644;11.448;2022-12-05T00:27:53;9.10;99.90
12655;DHT22;6392;44.644;11.448;2022-12-05T00:30:20;9.00;99.90
12655;DHT22;6392;44.644;11.448;2022-12-05T00:32:47;9.00;99.90
12655;DHT22;6392;44.644;11.448;2022-12-05T00:35:14;9.10;99.90
12655;DHT22;6392;44.644;11.448;2022-12-05T00:37:42;9.00;99.90
12655;DHT22;6392;44.644;11.448;2022-12-05T00:40:10;9.00;99.90
12655;DHT22;6392;44.644;11.448;2022-12-05T00:42:37;9.00;99.90
12655;DHT22;6392;44.644;11.448;2022-12-05T00:45:05;9.10;99.90
12655;DHT22;6392;44.644;11.448;2022-12-05T00:47:33;9.00;99.90
12655;DHT22;6392;44.644;11.448;2022-12-05T00:50:00;9.00;99.90
12655;DHT22;6392;44.644;11.448;2022-12-05T00:52:27;9.10;99.90
12655;DHT22;6392;44.644;11.448;2022-12-05T00:54:54;9.00;99.90
12655;DHT22;6392;44.644;11.448;2022-12-05T00:57:23;9.10;99.90
12655;DHT22;6392;44.644;11.448;2022-12-05T00:59:50;9.10;99.90
12655;DHT22;6392;44.644;11.448;2022-12-05T01:02:17;9.00;99.90
12655;DHT22;6392;44.644;11.448;2022-12-05T01:04:44;9.10;99.90
12655;DHT22;6392;44.644;11.448;2022-12-05T01:07:11;9.10;99.90
12655;DHT22;6392;44.644;11.448;2022-12-05T01:09:38;9.10;99.90
12655;DHT22;6392;44.644;11.448;2022-12-05T01:12:06;9.10;99.90
12655;DHT22;6392;44.644;11.448;2022-12-05T01:14:34;9.10;99.90
12655;DHT22;6392;44.644;11.448;2022-12-05T01:17:01;9.10;99.90
12655;DHT22;6392;44.644;11.448;2022-12-05T01:19:30;9.10;99.90
12655;DHT22;6392;44.644;11.448;2022-12-05T01:21:57;9.10;99.90
12655;DHT22;6392;44.644;11.448;2022-12-05T01:24:26;9.10;99.90
12655;DHT22;6392;44.644;11.448;2022-12-05T01:26:53;9.10;99.90
12655;DHT22;6392;44.644;11.448;2022-12-05T01:29:22;9.10;99.90
12655;DHT22;6392;44.644;11.448;2022-12-05T01:31:51;9.10;99.90
12655;DHT22;6392;44.644;11.448;2022-12-05T01:34:19;9.10;99.90
12655;DHT22;6392;44.644;11.448;2022-12-05T01:36:47;9.10;99.90
12655;DHT22;6392;44.644;11.448;2022-12-05T01:39:14;9.10;99.90
12655;DHT22;6392;44.644;11.448;2022-12-05T01:41:43;9.10;99.90
12655;DHT22;6392;44.644;11.448;2022-12-05T01:47:15;9.10;99.90
12655;DHT22;6392;44.644;11.448;2022-12-05T01:49:43;9.10;99.90
12655;DHT22;6392;44.644;11.448;2022-12-05T01:52:15;9.10;99.90
12655;DHT22;6392;44.644;11.448;2022-12-05T01:54:44;9.10;99.90
12655;DHT22;6392;44.644;11.448;2022-12-05T01:57:13;9.10;99.90
12655;DHT22;6392;44.644;11.448;2022-12-05T01:59:44;9.10;99.90
12655;DHT22;6392;44.644;11.448;2022-12-05T02:02:14;9.10;99.90
12655;DHT22;6392;44.644;11.448;2022-12-05T02:04:59;9.10;99.90
12655;DHT22;6392;44.644;11.448;2022-12-05T02:07:27;9.10;99.90
12655;DHT22;6392;44.644;11.448;2022-12-05T02:09:54;9.10;99.90
12655;DHT22;6392;44.644;11.448;2022-12-05T02:12:21;9.10;99.90
12655;DHT22;6392;44.644;11.448;2022-12-05T02:14:56;9.10;99.90
12655;DHT22;6392;44.644;11.448;2022-12-05T02:17:33;9.10;99.90
12655;DHT22;6392;44.644;11.448;2022-12-05T02:20:20;9.10;99.90
12655;DHT22;6392;44.644;11.448;2022-12-05T02:23:08;9.10;99.90
12655;DHT22;6392;44.644;11.448;2022-12-05T02:26:14;9.10;99.90
12655;DHT22;6392;44.644;11.448;2022-12-05T02:29:09;9.10;99.90
12655;DHT22;6392;44.644;11.448;2022-12-05T02:31:44;9.10;99.90
12655;DHT22;6392;44.644;11.448;2022-12-05T02:34:21;9.10;99.90
12655;DHT22;6392;44.644;11.448;2022-12-05T02:37:10;9.10;99.90
12655;DHT22;6392;44.644;11.448;2022-12-05T02:39:44;9.10;99.90
12655;DHT22;6392;44.644;11.448;2022-12-05T02:42:17;9.20;99.90
12655;DHT22;6392;44.644;11.448;2022-12-05T02:44:47;9.20;99.90
12655;DHT22;6392;44.644;11.448;2022-12-05T02:47:20;9.20;99.90
12655;DHT22;6392;44.644;11.448;2022-12-05T02:49:49;9.20;99.90
12655;DHT22;6392;44.644;11.448;2022-12-05T02:52:18;9.20;99.90
12655;DHT22;6392;44.644;11.448;2022-12-05T02:54:47;9.20;99.90
12655;DHT22;6392;44.644;11.448;2022-12-05T02:57:28;9.20;99.90
12655;DHT22;6392;44.644;11.448;2022-12-05T02:59:56;9.20;99.90
12655;DHT22;6392;44.644;11.448;2022-12-05T03:02:26;9.20;99.90
12655;DHT22;6392;44.644;11.448;2022-12-05T03:04:55;9.20;99.90
12655;DHT22;6392;44.644;11.448;2022-12-05T03:07:25;9.20;99.90
12655;DHT22;6392;44.644;11.448;2022-12-05T03:09:56;9.20;99.90
12655;DHT22;6392;44.644;11.448;2022-12-05T03:12:27;9.20;99.90
12655;DHT22;6392;44.644;11.448;2022-12-05T03:14:59;9.20;99.90
12655;DHT22;6392;44.644;11.448;2022-12-05T03:17:32;9.10;99.90
12655;DHT22;6392;44.644;11.448;2022-12-05T03:20:05;9.20;99.90
12655;DHT22;6392;44.644;11.448;2022-12-05T03:22:36;9.20;99.90
12655;DHT22;6392;44.644;11.448;2022-12-05T03:25:04;9.10;99.90
12655;DHT22;6392;44.644;11.448;2022-12-05T03:27:40;9.20;99.90
12655;DHT22;6392;44.644;11.448;2022-12-05T03:30:13;9.20;99.90
12655;DHT22;6392;44.644;11.448;2022-12-05T03:32:48;9.20;99.90
12655;DHT22;6392;44.644;11.448;2022-12-05T03:35:22;9.30;99.90
12655;DHT22;6392;44.644;11.448;2022-12-05T03:37:52;9.30;99.90
12655;DHT22;6392;44.644;11.448;2022-12-05T03:40:28;9.30;99.90
12655;DHT22;6392;44.644;11.448;2022-12-05T03:43:00;9.30;99.90
12655;DHT22;6392;44.644;11.448;2022-12-05T03:45:35;9.30;99.90
12655;DHT22;6392;44.644;11.448;2022-12-05T03:48:11;9.30;99.90
12655;DHT22;6392;44.644;11.448;2022-12-05T03:50:43;9.30;99.90
12655;DHT22;6392;44.644;11.448;2022-12-05T03:53:15;9.30;99.90
12655;DHT22;6392;44.644;11.448;2022-12-05T03:55:45;9.40;99.90
12655;DHT22;6392;44.644;11.448;2022-12-05T03:58:17;9.40;99.90
12655;DHT22;6392;44.644;11.448;2022-12-05T04:00:49;9.40;99.90
12655;DHT22;6392;44.644;11.448;2022-12-05T04:03:23;9.40;99.90
12655;DHT22;6392;44.644;11.448;2022-12-05T04:05:54;9.40;99.90
12655;DHT22;6392;44.644;11.448;2022-12-05T04:08:26;9.40;99.90
12655;DHT22;6392;44.644;11.448;2022-12-05T04:10:58;9.40;99.90
12655;DHT22;6392;44.644;11.448;2022-12-05T04:13:31;9.40;99.90
12655;DHT22;6392;44.644;11.448;2022-12-05T04:16:03;9.40;99.90
12655;DHT22;6392;44.644;11.448;2022-12-05T04:18:56;9.40;99.90
12655;DHT22;6392;44.644;11.448;2022-12-05T04:21:27;9.40;99.90
12655;DHT22;6392;44.644;11.448;2022-12-05T04:27:00;9.40;99.90
12655;DHT22;6392;44.644;11.448;2022-12-05T04:29:36;9.40;99.90
12655;DHT22;6392;44.644;11.448;2022-12-05T04:32:07;9.40;99.90
12655;DHT22;6392;44.644;11.448;2022-12-05T04:34:37;9.40;99.90
12655;DHT22;6392;44.644;11.448;2022-12-05T04:37:10;9.40;99.90
12655;DHT22;6392;44.644;11.448;2022-12-05T04:39:43;9.40;99.90
12655;DHT22;6392;44.644;11.448;2022-12-05T04:42:15;9.40;99.90
12655;DHT22;6392;44.644;11.448;2022-12-05T04:44:49;9.40;99.90
12655;DHT22;6392;44.644;11.448;2022-12-05T04:47:18;9.50;99.90
12655;DHT22;6392;44.644;11.448;2022-12-05T04:49:48;9.60;99.90
12655;DHT22;6392;44.644;11.448;2022-12-05T04:52:15;9.50;99.90
12655;DHT22;6392;44.644;11.448;2022-12-05T04:54:45;9.50;99.90
12655;DHT22;6392;44.644;11.448;2022-12-05T04:57:16;9.50;99.90
12655;DHT22;6392;44.644;11.448;2022-12-05T04:59:45;9.50;99.90
12655;DHT22;6392;44.644;11.448;2022-12-05T05:02:14;9.50;99.90
12655;DHT22;6392;44.644;11.448;2022-12-05T05:04:48;9.50;99.90
12655;DHT22;6392;44.644;11.448;2022-12-05T05:07:17;9.50;99.90
12655;DHT22;6392;44.644;11.448;2022-12-05T05:09:44;9.50;99.90
12655;DHT22;6392;44.644;11.448;2022-12-05T05:12:12;9.50;99.90
12655;DHT22;6392;44.644;11.448;2022-12-05T05:14:39;9.50;99.90
12655;DHT22;6392;44.644;11.448;2022-12-05T05:17:06;9.50;99.90
12655;DHT22;6392;44.644;11.448;2022-12-05T05:19:33;9.50;99.90
12655;DHT22;6392;44.644;11.448;2022-12-05T05:22:01;9.50;99.90
12655;DHT22;6392;44.644;11.448;2022-12-05T05:24:28;9.50;99.90
12655;DHT22;6392;44.644;11.448;2022-12-05T05:26:55;9.50;99.90
12655;DHT22;6392;44.644;11.448;2022-12-05T05:29:22;9.50;99.90
12655;DHT22;6392;44.644;11.448;2022-12-05T05:31:49;9.50;99.90
12655;DHT22;6392;44.644;11.448;2022-12-05T05:34:16;9.50;99.90
12655;DHT22;6392;44.644;11.448;2022-12-05T05:36:43;9.50;99.90
12655;DHT22;6392;44.644;11.448;2022-12-05T05:39:13;9.50;99.90
12655;DHT22;6392;44.644;11.448;2022-12-05T05:41:41;9.40;99.90
12655;DHT22;6392;44.644;11.448;2022-12-05T05:44:09;9.50;99.90
12655;DHT22;6392;44.644;11.448;2022-12-05T05:46:36;9.40;99.90
12655;DHT22;6392;44.644;11.448;2022-12-05T05:49:03;9.40;99.90
12655;DHT22;6392;44.644;11.448;2022-12-05T05:51:30;9.50;99.90
12655;DHT22;6392;44.644;11.448;2022-12-05T05:53:58;9.50;99.90
12655;DHT22;6392;44.644;11.448;2022-12-05T05:56:27;9.50;99.90
12655;DHT22;6392;44.644;11.448;2022-12-05T05:58:55;9.50;99.90
12655;DHT22;6392;44.644;11.448;2022-12-05T06:01:23;9.50;99.90
12655;DHT22;6392;44.644;11.448;2022-12-05T06:03:50;9.50;99.90
12655;DHT22;6392;44.644;11.448;2022-12-05T06:06:18;9.50;99.90
12655;DHT22;6392;44.644;11.448;2022-12-05T06:08:45;9.40;99.90
12655;DHT22;6392;44.644;11.448;2022-12-05T06:11:15;9.40;99.90
12655;DHT22;6392;44.644;11.448;2022-12-05T06:13:44;9.40;99.90
12655;DHT22;6392;44.644;11.448;2022-12-05T06:16:12;9.40;99.90
12655;DHT22;6392;44.644;11.448;2022-12-05T06:18:40;9.50;99.90
12655;DHT22;6392;44.644;11.448;2022-12-05T06:21:08;9.50;99.90
12655;DHT22;6392;44.644;11.448;2022-12-05T06:23:36;9.50;99.90
12655;DHT22;6392;44.644;11.448;2022-12-05T06:26:05;9.50;99.90
12655;DHT22;6392;44.644;11.448;2022-12-05T06:28:35;9.50;99.90
12655;DHT22;6392;44.644;11.448;2022-12-05T06:31:07;9.50;99.90
12655;DHT22;6392;44.644;11.448;2022-12-05T06:33:35;9.50;99.90
12655;DHT22;6392;44.644;11.448;2022-12-05T06:36:04;9.50;99.90
12655;DHT22;6392;44.644;11.448;2022-12-05T06:38:32;9.50;99.90
12655;DHT22;6392;44.644;11.448;2022-12-05T06:40:59;9.50;99.90
12655;DHT22;6392;44.644;11.448;2022-12-05T06:43:26;9.50;99.90
12655;DHT22;6392;44.644;11.448;2022-12-05T06:45:53;9.50;99.90
12655;DHT22;6392;44.644;11.448;2022-12-05T06:48:21;9.50;99.90
12655;DHT22;6392;44.644;11.448;2022-12-05T06:50:49;9.60;99.90
12655;DHT22;6392;44.644;11.448;2022-12-05T06:53:16;9.60;99.90
12655;DHT22;6392;44.644;11.448;2022-12-05T06:55:43;9.60;99.90
12655;DHT22;6392;44.644;11.448;2022-12-05T06:58:10;9.50;99.90
12655;DHT22;6392;44.644;11.448;2022-12-05T07:00:37;9.50;99.90
12655;DHT22;6392;44.644;11.448;2022-12-05T07:03:23;9.50;99.90
12655;DHT22;6392;44.644;11.448;2022-12-05T07:05:50;9.60;99.90
12655;DHT22;6392;44.644;11.448;2022-12-05T07:08:17;9.60;99.90
12655;DHT22;6392;44.644;11.448;2022-12-05T07:10:50;9.60;99.90
12655;DHT22;6392;44.644;11.448;2022-12-05T07:13:17;9.60;99.90
12655;DHT22;6392;44.644;11.448;2022-12-05T07:15:45;9.60;99.90
12655;DHT22;6392;44.644;11.448;2022-12-05T07:18:14;9.60;99.90
12655;DHT22;6392;44.644;11.448;2022-12-05T07:20:43;9.60;99.90
12655;DHT22;6392;44.644;11.448;2022-12-05T07:23:10;9.60;99.90
12655;DHT22;6392;44.644;11.448;2022-12-05T07:25:38;9.60;99.90
12655;DHT22;6392;44.644;11.448;2022-12-05T07:28:06;9.60;99.90
12655;DHT22;6392;44.644;11.448;2022-12-05T07:30:34;9.60;99.90
12655;DHT22;6392;44.644;11.448;2022-12-05T07:33:01;9.60;99.90
12655;DHT22;6392;44.644;11.448;2022-12-05T07:35:28;9.60;99.90
12655;DHT22;6392;44.644;11.448;2022-12-05T07:37:56;9.60;99.90
12655;DHT22;6392;44.644;11.448;2022-12-05T07:40:23;9.60;99.90
12655;DHT22;6392;44.644;11.448;2022-12-05T07:42:51;9.60;99.90
12655;DHT22;6392;44.644;11.448;2022-12-05T07:45:19;9.60;99.90
12655;DHT22;6392;44.644;11.448;2022-12-05T07:47:46;9.60;99.90
12655;DHT22;6392;44.644;11.448;2022-12-05T07:50:13;9.60;99.90
12655;DHT22;6392;44.644;11.448;2022-12-05T07:52:41;9.70;99.90
12655;DHT22;6392;44.644;11.448;2022-12-05T07:55:09;9.70;99.90
12655;DHT22;6392;44.644;11.448;2022-12-05T07:57:36;9.70;99.90
12655;DHT22;6392;44.644;11.448;2022-12-05T08:00:04;9.70;99.90
12655;DHT22;6392;44.644;11.448;2022-12-05T08:02:31;9.80;99.90
12655;DHT22;6392;44.644;11.448;2022-12-05T08:04:59;9.70;99.90
12655;DHT22;6392;44.644;11.448;2022-12-05T08:07:26;9.70;99.90
12655;DHT22;6392;44.644;11.448;2022-12-05T08:09:53;9.80;99.90
12655;DHT22;6392;44.644;11.448;2022-12-05T08:12:21;9.80;99.90
12655;DHT22;6392;44.644;11.448;2022-12-05T08:14:48;9.80;99.90
12655;DHT22;6392;44.644;11.448;2022-12-05T08:17:15;9.80;99.90
12655;DHT22;6392;44.644;11.448;2022-12-05T08:19:42;9.80;99.90
12655;DHT22;6392;44.644;11.448;2022-12-05T08:22:09;9.80;99.90
12655;DHT22;6392;44.644;11.448;2022-12-05T08:24:36;9.90;99.90
12655;DHT22;6392;44.644;11.448;2022-12-05T08:27:04;9.90;99.90
12655;DHT22;6392;44.644;11.448;2022-12-05T08:29:32;9.90;99.90
12655;DHT22;6392;44.644;11.448;2022-12-05T08:31:59;9.90;99.90
12655;DHT22;6392;44.644;11.448;2022-12-05T08:34:26;10.00;99.90
12655;DHT22;6392;44.644;11.448;2022-12-05T08:36:53;10.00;99.90
12655;DHT22;6392;44.644;11.448;2022-12-05T08:39:20;10.00;99.90
12655;DHT22;6392;44.644;11.448;2022-12-05T08:41:48;10.00;99.90
12655;DHT22;6392;44.644;11.448;2022-12-05T08:44:15;10.10;99.90
12655;DHT22;6392;44.644;11.448;2022-12-05T08:46:46;10.10;99.90
12655;DHT22;6392;44.644;11.448;2022-12-05T08:49:15;10.10;99.90
12655;DHT22;6392;44.644;11.448;2022-12-05T08:51:43;10.10;99.90
12655;DHT22;6392;44.644;11.448;2022-12-05T08:54:10;10.10;99.90
12655;DHT22;6392;44.644;11.448;2022-12-05T08:56:37;10.20;99.90
12655;DHT22;6392;44.644;11.448;2022-12-05T08:59:05;10.20;99.90
12655;DHT22;6392;44.644;11.448;2022-12-05T09:01:33;10.30;99.90
12655;DHT22;6392;44.644;11.448;2022-12-05T09:04:04;10.40;99.90
12655;DHT22;6392;44.644;11.448;2022-12-05T09:06:32;10.50;99.90
12655;DHT22;6392;44.644;11.448;2022-12-05T09:09:02;10.50;99.90
12655;DHT22;6392;44.644;11.448;2022-12-05T09:11:31;10.50;99.90
12655;DHT22;6392;44.644;11.448;2022-12-05T09:14:00;10.40;99.90
12655;DHT22;6392;44.644;11.448;2022-12-05T09:16:29;10.40;99.90
12655;DHT22;6392;44.644;11.448;2022-12-05T09:18:57;10.40;99.90
12655;DHT22;6392;44.644;11.448;2022-12-05T09:21:28;10.40;99.90
12655;DHT22;6392;44.644;11.448;2022-12-05T09:23:57;10.40;99.90
12655;DHT22;6392;44.644;11.448;2022-12-05T09:26:25;10.50;99.90
12655;DHT22;6392;44.644;11.448;2022-12-05T09:28:53;10.50;99.90
12655;DHT22;6392;44.644;11.448;2022-12-05T09:31:21;10.50;99.90
12655;DHT22;6392;44.644;11.448;2022-12-05T09:33:50;10.50;99.90
12655;DHT22;6392;44.644;11.448;2022-12-05T09:36:19;10.50;99.90
12655;DHT22;6392;44.644;11.448;2022-12-05T09:38:48;10.50;99.90
12655;DHT22;6392;44.644;11.448;2022-12-05T09:44:25;10.40;99.90
12655;DHT22;6392;44.644;11.448;2022-12-05T09:46:59;10.40;99.90
12655;DHT22;6392;44.644;11.448;2022-12-05T09:49:29;10.50;99.90
12655;DHT22;6392;44.644;11.448;2022-12-05T09:51:58;10.50;99.90
12655;DHT22;6392;44.644;11.448;2022-12-05T09:54:27;10.40;99.90
12655;DHT22;6392;44.644;11.448;2022-12-05T09:56:57;10.40;99.90
12655;DHT22;6392;44.644;11.448;2022-12-05T09:59:24;10.40;99.90
12655;DHT22;6392;44.644;11.448;2022-12-05T10:01:55;10.50;99.90
12655;DHT22;6392;44.644;11.448;2022-12-05T10:04:45;10.50;99.90
12655;DHT22;6392;44.644;11.448;2022-12-05T10:07:19;10.50;99.90
12655;DHT22;6392;44.644;11.448;2022-12-05T10:09:53;10.50;99.90
12655;DHT22;6392;44.644;11.448;2022-12-05T10:12:44;10.50;99.90
12655;DHT22;6392;44.644;11.448;2022-12-05T10:15:16;10.60;99.90
12655;DHT22;6392;44.644;11.448;2022-12-05T10:17:49;10.60;99.90
12655;DHT22;6392;44.644;11.448;2022-12-05T10:20:21;10.60;99.90
12655;DHT22;6392;44.644;11.448;2022-12-05T10:22:53;10.60;99.90
12655;DHT22;6392;44.644;11.448;2022-12-05T10:25:26;10.70;99.90
12655;DHT22;6392;44.644;11.448;2022-12-05T10:27:55;10.70;99.90
12655;DHT22;6392;44.644;11.448;2022-12-05T10:30:25;10.70;99.90
12655;DHT22;6392;44.644;11.448;2022-12-05T10:32:55;10.70;99.90
12655;DHT22;6392;44.644;11.448;2022-12-05T10:35:25;10.80;99.90
12655;DHT22;6392;44.644;11.448;2022-12-05T10:37:54;10.80;99.90
12655;DHT22;6392;44.644;11.448;2022-12-05T10:40:25;10.70;99.90
12655;DHT22;6392;44.644;11.448;2022-12-05T10:42:52;10.70;99.90
12655;DHT22;6392;44.644;11.448;2022-12-05T10:45:21;10.80;99.90
12655;DHT22;6392;44.644;11.448;2022-12-05T10:47:53;10.90;99.90
12655;DHT22;6392;44.644;11.448;2022-12-05T10:50:24;10.90;99.90
12655;DHT22;6392;44.644;11.448;2022-12-05T10:52:52;10.90;99.90
12655;DHT22;6392;44.644;11.448;2022-12-05T10:55:20;11.00;99.90
12655;DHT22;6392;44.644;11.448;2022-12-05T10:57:51;11.00;99.90
12655;DHT22;6392;44.644;11.448;2022-12-05T11:00:22;11.00;99.90
12655;DHT22;6392;44.644;11.448;2022-12-05T11:02:56;11.00;99.90
12655;DHT22;6392;44.644;11.448;2022-12-05T11:05:28;11.00;99.90
12655;DHT22;6392;44.644;11.448;2022-12-05T11:07:56;11.00;99.90
12655;DHT22;6392;44.644;11.448;2022-12-05T11:10:26;11.00;99.90
12655;DHT22;6392;44.644;11.448;2022-12-05T11:12:57;11.00;99.90
12655;DHT22;6392;44.644;11.448;2022-12-05T11:15:27;11.00;99.90
12655;DHT22;6392;44.644;11.448;2022-12-05T11:17:55;11.00;99.90
12655;DHT22;6392;44.644;11.448;2022-12-05T11:20:35;11.10;99.90
12655;DHT22;6392;44.644;11.448;2022-12-05T11:23:21;11.10;99.90
12655;DHT22;6392;44.644;11.448;2022-12-05T11:25:48;11.10;99.90
12655;DHT22;6392;44.644;11.448;2022-12-05T11:28:29;11.20;99.90
12655;DHT22;6392;44.644;11.448;2022-12-05T11:30:58;11.10;99.90
12655;DHT22;6392;44.644;11.448;2022-12-05T11:33:27;11.30;99.90
12655;DHT22;6392;44.644;11.448;2022-12-05T11:35:58;11.30;99.90
12655;DHT22;6392;44.644;11.448;2022-12-05T11:38:28;11.30;99.90
12655;DHT22;6392;44.644;11.448;2022-12-05T11:41:11;11.30;99.90
12655;DHT22;6392;44.644;11.448;2022-12-05T11:46:58;11.30;99.90
12655;DHT22;6392;44.644;11.448;2022-12-05T11:49:50;11.30;99.90
12655;DHT22;6392;44.644;11.448;2022-12-05T11:52:27;11.30;99.90
12655;DHT22;6392;44.644;11.448;2022-12-05T11:55:02;11.30;99.90
12655;DHT22;6392;44.644;11.448;2022-12-05T11:58:04;11.40;99.90
12655;DHT22;6392;44.644;11.448;2022-12-05T12:00:42;11.40;99.90
12655;DHT22;6392;44.644;11.448;2022-12-05T12:03:36;11.40;99.90
12655;DHT22;6392;44.644;11.448;2022-12-05T12:06:19;11.40;99.90
12655;DHT22;6392;44.644;11.448;2022-12-05T12:09:01;11.40;99.90
12655;DHT22;6392;44.644;11.448;2022-12-05T12:11:38;11.40;99.90
12655;DHT22;6392;44.644;11.448;2022-12-05T12:14:13;11.40;99.90
12655;DHT22;6392;44.644;11.448;2022-12-05T12:16:51;11.40;99.90
12655;DHT22;6392;44.644;11.448;2022-12-05T12:19:34;11.40;99.90
12655;DHT22;6392;44.644;11.448;2022-12-05T12:22:17;11.50;99.90
12655;DHT22;6392;44.644;11.448;2022-12-05T12:25:02;11.50;99.90
12655;DHT22;6392;44.644;11.448;2022-12-05T12:27:44;11.50;99.90
12655;DHT22;6392;44.644;11.448;2022-12-05T12:30:16;11.50;99.90
12655;DHT22;6392;44.644;11.448;2022-12-05T12:32:55;11.50;99.90
12655;DHT22;6392;44.644;11.448;2022-12-05T12:35:29;11.50;99.90
12655;DHT22;6392;44.644;11.448;2022-12-05T12:38:27;11.60;99.90
12655;DHT22;6392;44.644;11.448;2022-12-05T12:41:03;11.60;99.90
12655;DHT22;6392;44.644;11.448;2022-12-05T12:43:43;11.70;99.90
12655;DHT22;6392;44.644;11.448;2022-12-05T12:46:27;11.70;99.90
12655;DHT22;6392;44.644;11.448;2022-12-05T12:49:13;11.60;99.90
12655;DHT22;6392;44.644;11.448;2022-12-05T12:51:47;11.60;99.90
12655;DHT22;6392;44.644;11.448;2022-12-05T12:54:28;11.50;99.90
12655;DHT22;6392;44.644;11.448;2022-12-05T12:57:06;11.60;99.90
12655;DHT22;6392;44.644;11.448;2022-12-05T12:59:52;11.60;99.90
12655;DHT22;6392;44.644;11.448;2022-12-05T13:02:26;11.60;99.90
12655;DHT22;6392;44.644;11.448;2022-12-05T13:04:59;11.60;99.90
12655;DHT22;6392;44.644;11.448;2022-12-05T13:07:30;11.50;99.90
12655;DHT22;6392;44.644;11.448;2022-12-05T13:10:05;11.50;99.90
12655;DHT22;6392;44.644;11.448;2022-12-05T13:12:39;11.60;99.90
12655;DHT22;6392;44.644;11.448;2022-12-05T13:15:12;11.50;99.90
12655;DHT22;6392;44.644;11.448;2022-12-05T13:17:41;11.50;99.90
12655;DHT22;6392;44.644;11.448;2022-12-05T13:20:16;11.50;99.90
12655;DHT22;6392;44.644;11.448;2022-12-05T13:22:44;11.60;99.90
12655;DHT22;6392;44.644;11.448;2022-12-05T13:25:13;11.60;99.90
12655;DHT22;6392;44.644;11.448;2022-12-05T13:27:53;11.60;99.90
12655;DHT22;6392;44.644;11.448;2022-12-05T13:30:21;11.60;99.90
12655;DHT22;6392;44.644;11.448;2022-12-05T13:32:55;11.60;99.90
12655;DHT22;6392;44.644;11.448;2022-12-05T13:35:28;11.60;99.90
12655;DHT22;6392;44.644;11.448;2022-12-05T13:38:19;11.60;99.90
12655;DHT22;6392;44.644;11.448;2022-12-05T13:41:04;11.60;99.90
12655;DHT22;6392;44.644;11.448;2022-12-05T13:43:51;11.50;99.90
12655;DHT22;6392;44.644;11.448;2022-12-05T13:46:25;11.50;99.90
12655;DHT22;6392;44.644;11.448;2022-12-05T13:48:58;11.50;99.90
12655;DHT22;6392;44.644;11.448;2022-12-05T13:51:31;11.50;99.90
12655;DHT22;6392;44.644;11.448;2022-12-05T13:54:02;11.50;99.90
12655;DHT22;6392;44.644;11.448;2022-12-05T13:56:46;11.50;99.90
12655;DHT22;6392;44.644;11.448;2022-12-05T14:02:47;11.50;99.90
12655;DHT22;6392;44.644;11.448;2022-12-05T14:05:36;11.50;99.90
12655;DHT22;6392;44.644;11.448;2022-12-05T14:11:14;11.50;99.90
12655;DHT22;6392;44.644;11.448;2022-12-05T14:13:43;11.50;99.90
12655;DHT22;6392;44.644;11.448;2022-12-05T14:16:41;11.50;99.90
12655;DHT22;6392;44.644;11.448;2022-12-05T14:25:23;11.50;99.90
12655;DHT22;6392;44.644;11.448;2022-12-05T14:27:59;11.60;99.90
12655;DHT22;6392;44.644;11.448;2022-12-05T14:30:33;11.60;99.90
12655;DHT22;6392;44.644;11.448;2022-12-05T14:33:01;11.60;99.90
12655;DHT22;6392;44.644;11.448;2022-12-05T14:35:30;11.60;99.90
12655;DHT22;6392;44.644;11.448;2022-12-05T14:38:06;11.60;99.90
12655;DHT22;6392;44.644;11.448;2022-12-05T14:40:45;11.60;99.90
12655;DHT22;6392;44.644;11.448;2022-12-05T14:43:18;11.60;99.90
12655;DHT22;6392;44.644;11.448;2022-12-05T14:45:57;11.50;99.90
12655;DHT22;6392;44.644;11.448;2022-12-05T14:48:28;11.50;99.90
12655;DHT22;6392;44.644;11.448;2022-12-05T14:50:57;11.50;99.90
12655;DHT22;6392;44.644;11.448;2022-12-05T14:53:36;11.50;99.90
12655;DHT22;6392;44.644;11.448;2022-12-05T14:56:20;11.50;99.90
12655;DHT22;6392;44.644;11.448;2022-12-05T14:58:54;11.50;99.90
12655;DHT22;6392;44.644;11.448;2022-12-05T15:01:24;11.50;99.90
12655;DHT22;6392;44.644;11.448;2022-12-05T15:06:54;11.40;99.90
12655;DHT22;6392;44.644;11.448;2022-12-05T15:09:39;11.40;99.90
12655;DHT22;6392;44.644;11.448;2022-12-05T15:12:13;11.40;99.90
12655;DHT22;6392;44.644;11.448;2022-12-05T15:14:46;11.30;99.90
12655;DHT22;6392;44.644;11.448;2022-12-05T15:17:20;11.30;99.90
12655;DHT22;6392;44.644;11.448;2022-12-05T15:19:53;11.20;99.90
12655;DHT22;6392;44.644;11.448;2022-12-05T15:22:24;11.20;99.90
12655;DHT22;6392;44.644;11.448;2022-12-05T15:24:52;11.30;99.90
12655;DHT22;6392;44.644;11.448;2022-12-05T15:27:19;11.30;99.90
12655;DHT22;6392;44.644;11.448;2022-12-05T15:29:52;11.30;99.90
12655;DHT22;6392;44.644;11.448;2022-12-05T15:32:24;11.30;99.90
12655;DHT22;6392;44.644;11.448;2022-12-05T15:34:58;11.30;99.90
12655;DHT22;6392;44.644;11.448;2022-12-05T15:37:30;11.20;99.90
12655;DHT22;6392;44.644;11.448;2022-12-05T15:39:59;11.20;99.90
12655;DHT22;6392;44.644;11.448;2022-12-05T15:42:30;11.20;99.90
12655;DHT22;6392;44.644;11.448;2022-12-05T15:45:19;11.20;99.90
12655;DHT22;6392;44.644;11.448;2022-12-05T15:47:49;11.20;99.90
12655;DHT22;6392;44.644;11.448;2022-12-05T15:50:21;11.10;99.90
12655;DHT22;6392;44.644;11.448;2022-12-05T15:52:50;11.10;99.90
12655;DHT22;6392;44.644;11.448;2022-12-05T15:55:24;11.00;99.90
12655;DHT22;6392;44.644;11.448;2022-12-05T15:57:58;11.00;99.90
12655;DHT22;6392;44.644;11.448;2022-12-05T16:00:28;11.00;99.90
12655;DHT22;6392;44.644;11.448;2022-12-05T16:03:01;10.90;99.90
12655;DHT22;6392;44.644;11.448;2022-12-05T16:05:33;10.90;99.90
12655;DHT22;6392;44.644;11.448;2022-12-05T16:08:02;10.90;99.90
12655;DHT22;6392;44.644;11.448;2022-12-05T16:10:31;10.90;99.90
12655;DHT22;6392;44.644;11.448;2022-12-05T16:13:02;10.90;99.90
12655;DHT22;6392;44.644;11.448;2022-12-05T16:15:32;10.90;99.90
12655;DHT22;6392;44.644;11.448;2022-12-05T16:18:02;10.90;99.90
12655;DHT22;6392;44.644;11.448;2022-12-05T16:20:32;10.80;99.90
12655;DHT22;6392;44.644;11.448;2022-12-05T16:23:01;10.80;99.90
12655;DHT22;6392;44.644;11.448;2022-12-05T16:25:30;10.80;99.90
12655;DHT22;6392;44.644;11.448;2022-12-05T16:28:02;10.70;99.90
12655;DHT22;6392;44.644;11.448;2022-12-05T16:30:31;10.70;99.90
12655;DHT22;6392;44.644;11.448;2022-12-05T16:33:02;10.70;99.90
12655;DHT22;6392;44.644;11.448;2022-12-05T16:35:35;10.60;99.90